createdAt,value
2022-09-28T00:04:07.647Z,100.00
2022-09-28T00:09:09.152Z,100.00
2022-09-28T00:14:11.258Z,100.00
2022-09-28T00:19:13.476Z,100.00
2022-09-28T00:24:15.622Z,100.00
2022-09-28T00:29:32.472Z,100.00
2022-09-28T00:34:41.185Z,100.00
2022-09-28T00:39:43.337Z,100.00
2022-09-28T00:44:56.001Z,100.00
2022-09-28T00:50:03.194Z,100.00
2022-09-28T00:55:08.655Z,100.00
2022-09-28T01:00:11.107Z,100.00
2022-09-28T01:05:13.737Z,100.00
2022-09-28T01:10:15.572Z,100.00
2022-09-28T01:15:17.351Z,100.00
2022-09-28T01:20:28.095Z,100.00
2022-09-28T01:25:29.608Z,100.00
2022-09-28T01:30:42.051Z,100.00
2022-09-28T01:35:51.235Z,100.00
2022-09-28T01:40:54.855Z,100.00
2022-09-28T01:46:04.875Z,100.00
2022-09-28T01:51:14.347Z,100.00
2022-09-28T01:56:22.757Z,100.00
2022-09-28T02:01:51.702Z,100.00
2022-09-28T02:07:18.348Z,100.00
2022-09-28T02:12:26.798Z,100.00
2022-09-28T02:17:29.110Z,100.00
2022-09-28T02:23:01.816Z,100.00
2022-09-28T02:28:08.318Z,100.00
2022-09-28T02:33:14.005Z,100.00
2022-09-28T02:38:16.384Z,100.00
2022-09-28T02:43:33.403Z,100.00
2022-09-28T02:48:45.763Z,100.00
2022-09-28T02:53:59.953Z,100.00
2022-09-28T02:59:35.561Z,100.00
2022-09-28T03:04:45.245Z,100.00
2022-09-28T03:10:05.465Z,100.00
2022-09-28T03:15:31.228Z,100.00
2022-09-28T03:20:33.522Z,100.00
2022-09-28T03:25:35.870Z,100.00
2022-09-28T03:30:37.391Z,100.00
2022-09-28T03:35:39.361Z,100.00
2022-09-28T03:40:40.836Z,100.00
2022-09-28T03:45:42.413Z,100.00
2022-09-28T03:50:43.855Z,100.00
2022-09-28T03:55:45.321Z,100.00
2022-09-28T04:00:47.773Z,100.00
2022-09-28T04:05:50.552Z,100.00
2022-09-28T04:10:52.223Z,100.00
2022-09-28T04:15:56.017Z,100.00
2022-09-28T04:21:03.626Z,100.00
2022-09-28T04:26:19.567Z,100.00
2022-09-28T04:31:23.618Z,100.00
2022-09-28T04:36:25.198Z,100.00
2022-09-28T04:41:26.927Z,100.00
2022-09-28T04:46:28.484Z,100.00
2022-09-28T04:52:01.895Z,100.00
2022-09-28T05:02:05.403Z,100.00
2022-09-28T05:07:26.220Z,100.00
2022-09-28T05:17:29.025Z,100.00
2022-09-28T05:22:53.624Z,100.00
2022-09-28T05:27:56.545Z,100.00
2022-09-28T05:33:13.012Z,100.00
2022-09-28T05:38:22.706Z,100.00
2022-09-28T05:43:24.239Z,100.00
2022-09-28T05:48:25.757Z,100.00
2022-09-28T05:53:27.311Z,100.00
2022-09-28T05:58:28.835Z,100.00
2022-09-28T06:03:31.856Z,100.00
2022-09-28T06:08:34.019Z,100.00
2022-09-28T06:13:53.381Z,100.00
2022-09-28T06:18:54.878Z,100.00
2022-09-28T06:24:13.814Z,100.00
2022-09-28T06:29:19.744Z,100.00
2022-09-28T06:34:21.554Z,100.00
2022-09-28T06:39:23.304Z,100.00
2022-09-28T06:44:25.440Z,100.00
2022-09-28T06:49:47.645Z,100.00
2022-09-28T06:55:25.023Z,100.00
2022-09-28T07:00:33.924Z,100.00
2022-09-28T07:05:41.284Z,100.00
2022-09-28T07:11:13.118Z,100.00
2022-09-28T07:17:02.873Z,100.00
2022-09-28T07:22:05.439Z,100.00
2022-09-28T07:27:08.390Z,100.00
2022-09-28T07:32:27.748Z,100.00
2022-09-28T07:38:03.780Z,100.00
2022-09-28T07:43:07.121Z,100.00
2022-09-28T07:48:08.718Z,100.00
2022-09-28T07:53:28.811Z,100.00
2022-09-28T07:58:47.365Z,100.00
2022-09-28T08:04:07.332Z,100.00
2022-09-28T08:09:10.756Z,100.00
2022-09-28T08:14:34.949Z,100.00
2022-09-28T08:20:06.767Z,100.00
2022-09-28T08:25:08.986Z,100.00
2022-09-28T08:30:11.804Z,100.00
2022-09-28T08:35:28.585Z,100.00
2022-09-28T08:41:12.493Z,99.38
2022-09-28T08:46:49.151Z,98.09
2022-09-28T08:52:23.334Z,97.51
2022-09-28T08:57:54.105Z,96.65
2022-09-28T09:02:56.752Z,96.02
2022-09-28T09:08:14.935Z,94.87
2022-09-28T09:13:47.248Z,95.02
2022-09-28T09:19:27.851Z,92.45
2022-09-28T09:24:58.787Z,91.88
2022-09-28T09:30:06.882Z,91.85
2022-09-28T09:35:33.364Z,89.23
2022-09-28T09:46:58.824Z,85.53
2022-09-28T09:52:18.716Z,86.28
2022-09-28T09:57:30.696Z,84.45
2022-09-28T10:02:41.683Z,85.37
2022-09-28T10:08:08.973Z,84.67
2022-09-28T10:13:12.254Z,86.42
2022-09-28T10:18:16.471Z,85.92
2022-09-28T10:23:41.616Z,85.73
2022-09-28T10:29:01.550Z,86.50
2022-09-28T10:34:05.085Z,85.10
2022-09-28T10:39:36.944Z,85.01
2022-09-28T10:44:51.095Z,85.29
2022-09-28T10:50:23.407Z,85.26
2022-09-28T10:55:33.176Z,83.61
2022-09-28T11:00:43.392Z,82.99
2022-09-28T11:06:00.655Z,82.82
2022-09-28T11:11:05.372Z,82.75
2022-09-28T11:16:07.308Z,81.35
2022-09-28T11:21:23.147Z,79.35
2022-09-28T11:26:57.872Z,79.09
2022-09-28T11:32:04.939Z,78.51
2022-09-28T11:37:24.576Z,74.89
2022-09-28T11:42:54.930Z,77.07
2022-09-28T11:47:59.743Z,74.80
2022-09-28T11:53:19.594Z,77.03
2022-09-28T11:58:33.360Z,76.58
2022-09-28T12:03:43.071Z,77.76
2022-09-28T12:09:03.103Z,78.02
2022-09-28T12:14:10.238Z,79.86
2022-09-28T12:19:29.867Z,79.26
2022-09-28T12:24:36.694Z,80.61
2022-09-28T12:29:43.908Z,76.99
2022-09-28T12:34:45.367Z,77.23
2022-09-28T12:40:31.721Z,80.03
2022-09-28T12:45:42.864Z,85.18
2022-09-28T12:51:11.235Z,84.57
2022-09-28T12:56:40.458Z,85.58
2022-09-28T13:02:09.781Z,85.24
2022-09-28T13:07:42.766Z,81.10
2022-09-28T13:12:46.881Z,80.40
2022-09-28T13:18:07.497Z,78.92
2022-09-28T13:23:17.898Z,80.02
2022-09-28T13:28:26.241Z,86.13
2022-09-28T13:33:37.975Z,96.33
2022-09-28T13:38:47.399Z,100.00
2022-09-28T13:44:10.689Z,100.00
2022-09-28T13:49:15.088Z,100.00
2022-09-28T13:54:30.617Z,100.00
2022-09-28T13:59:42.096Z,99.27
2022-09-28T14:05:00.367Z,97.32
2022-09-28T14:10:16.944Z,94.67
2022-09-28T14:15:36.658Z,93.91
2022-09-28T14:20:46.995Z,90.59
2022-09-28T14:26:19.831Z,87.44
2022-09-28T14:31:27.078Z,89.11
2022-09-28T14:37:00.715Z,88.52
2022-09-28T14:42:10.027Z,90.36
2022-09-28T14:47:44.923Z,89.79
2022-09-28T14:52:50.796Z,88.71
2022-09-28T14:57:56.661Z,90.65
2022-09-28T15:03:08.927Z,85.29
2022-09-28T15:08:13.111Z,86.51
2022-09-28T15:13:28.554Z,86.71
2022-09-28T15:19:08.798Z,88.18
2022-09-28T15:24:33.494Z,89.70
2022-09-28T15:29:35.011Z,90.80
2022-09-28T15:34:52.352Z,93.39
2022-09-28T15:39:55.777Z,100.00
2022-09-28T15:45:13.533Z,100.00
2022-09-28T15:50:32.940Z,100.00
2022-09-28T15:55:42.315Z,100.00
2022-09-28T16:00:49.564Z,100.00
2022-09-28T16:05:52.450Z,100.00
2022-09-28T16:11:02.224Z,100.00
2022-09-28T16:16:03.869Z,100.00
2022-09-28T16:21:31.505Z,100.00
2022-09-28T16:26:38.831Z,100.00
2022-09-28T16:31:43.716Z,100.00
2022-09-28T16:36:48.068Z,100.00
2022-09-28T16:41:55.567Z,100.00
2022-09-28T16:46:58.364Z,100.00
2022-09-28T16:52:01.127Z,100.00
2022-09-28T16:57:04.383Z,100.00
2022-09-28T17:02:45.060Z,100.00
2022-09-28T17:07:43.023Z,100.00
2022-09-28T17:12:45.197Z,100.00
2022-09-28T17:17:47.104Z,100.00
2022-09-28T17:22:49.735Z,100.00
2022-09-28T17:27:54.460Z,100.00
2022-09-28T17:32:55.952Z,100.00
2022-09-28T17:37:57.378Z,100.00
2022-09-28T17:42:59.672Z,100.00
2022-09-28T17:48:01.556Z,100.00
2022-09-28T17:53:06.080Z,100.00
2022-09-28T17:58:20.143Z,100.00
2022-09-28T18:03:23.724Z,100.00
2022-09-28T18:08:25.156Z,100.00
2022-09-28T18:13:26.543Z,100.00
2022-09-28T18:18:28.078Z,100.00
2022-09-28T18:23:29.804Z,100.00
2022-09-28T18:28:31.242Z,100.00
2022-09-28T18:33:32.719Z,100.00
2022-09-28T18:38:38.388Z,100.00
2022-09-28T18:43:40.308Z,100.00
2022-09-28T18:48:42.293Z,100.00
2022-09-28T18:53:43.787Z,100.00
2022-09-28T18:58:46.585Z,100.00
2022-09-28T19:03:48.115Z,100.00
2022-09-28T19:08:55.378Z,100.00
2022-09-28T19:13:56.919Z,100.00
2022-09-28T19:19:00.821Z,100.00
2022-09-28T19:24:03.924Z,100.00
2022-09-28T19:29:05.380Z,100.00
2022-09-28T19:34:09.326Z,100.00
2022-09-28T19:39:14.720Z,100.00
2022-09-28T19:44:24.200Z,100.00
2022-09-28T19:49:26.917Z,100.00
2022-09-28T19:54:34.384Z,100.00
2022-09-28T19:59:38.480Z,100.00
2022-09-28T20:04:40.068Z,100.00
2022-09-28T20:09:42.015Z,100.00
2022-09-28T20:14:43.421Z,100.00
2022-09-28T20:19:44.987Z,100.00
2022-09-28T20:24:46.524Z,100.00
2022-09-28T20:29:48.091Z,100.00
2022-09-28T20:34:49.586Z,100.00
2022-09-28T20:39:51.023Z,100.00
2022-09-28T20:44:52.750Z,100.00
2022-09-28T20:49:54.143Z,100.00
2022-09-28T20:54:55.635Z,100.00
2022-09-28T20:59:57.646Z,100.00
2022-09-28T21:04:59.135Z,100.00
2022-09-28T21:10:00.649Z,100.00
2022-09-28T21:15:05.674Z,100.00
2022-09-28T21:20:08.364Z,100.00
2022-09-28T21:25:09.841Z,100.00
2022-09-28T21:30:12.045Z,100.00
2022-09-28T21:35:13.644Z,100.00
2022-09-28T21:40:15.156Z,100.00
2022-09-28T21:45:16.921Z,100.00
2022-09-28T21:50:21.798Z,100.00
2022-09-28T21:55:23.840Z,100.00
2022-09-28T22:00:25.432Z,100.00
2022-09-28T22:05:28.070Z,100.00
2022-09-28T22:10:29.588Z,100.00
2022-09-28T22:15:31.088Z,100.00
2022-09-28T22:20:32.517Z,100.00
2022-09-28T22:25:34.177Z,100.00
2022-09-28T22:30:35.642Z,100.00
2022-09-28T22:35:37.325Z,100.00
2022-09-28T22:40:46.928Z,100.00
2022-09-28T22:45:48.974Z,100.00
2022-09-28T22:50:51.257Z,100.00
2022-09-28T22:55:52.836Z,100.00
2022-09-28T23:00:56.276Z,100.00
2022-09-28T23:05:57.715Z,100.00
2022-09-28T23:10:59.306Z,100.00
2022-09-28T23:16:03.203Z,100.00
2022-09-28T23:21:06.914Z,81.23
2022-09-28T23:26:21.255Z,100.00
2022-09-28T23:31:28.742Z,100.00
2022-09-28T23:36:30.908Z,100.00
2022-09-28T23:41:32.319Z,100.00
2022-09-28T23:46:33.923Z,100.00
2022-09-28T23:51:35.396Z,100.00
2022-09-28T23:56:36.843Z,100.00
